sensor_id;sensor_type;location;lat;lon;timestamp;pressure;altitude;pressure_sealevel;temperature;humidity
45255;BME280;30989;52.078;21.014;2023-04-08T00:02:23;165000.19;;;4.77;100.00
45255;BME280;30989;52.078;21.014;2023-04-08T00:04:48;164956.16;;;4.60;100.00
45255;BME280;30989;52.078;21.014;2023-04-08T00:07:14;164982.84;;;4.70;100.00
45255;BME280;30989;52.078;21.014;2023-04-08T00:09:39;164968.16;;;4.65;100.00
45255;BME280;30989;52.078;21.014;2023-04-08T00:12:05;164970.84;;;4.66;100.00
45255;BME280;30989;52.078;21.014;2023-04-08T00:14:30;164964.16;;;4.63;100.00
45255;BME280;30989;52.078;21.014;2023-04-08T00:16:56;164937.47;;;4.53;100.00
45255;BME280;30989;52.078;21.014;2023-04-08T00:19:21;164924.16;;;4.48;100.00
45255;BME280;30989;52.078;21.014;2023-04-08T00:21:47;164928.16;;;4.49;100.00
45255;BME280;30989;52.078;21.014;2023-04-08T00:24:12;164933.47;;;4.51;100.00
45255;BME280;30989;52.078;21.014;2023-04-08T00:26:38;164918.81;;;4.46;100.00
45255;BME280;30989;52.078;21.014;2023-04-08T00:29:03;164910.81;;;4.43;100.00
45255;BME280;30989;52.078;21.014;2023-04-08T00:31:29;164917.47;;;4.45;100.00
45255;BME280;30989;52.078;21.014;2023-04-08T00:33:54;164906.81;;;4.41;100.00
45255;BME280;30989;52.078;21.014;2023-04-08T00:36:20;164906.81;;;4.41;100.00
45255;BME280;30989;52.078;21.014;2023-04-08T00:38:45;164905.47;;;4.41;100.00
45255;BME280;30989;52.078;21.014;2023-04-08T00:41:11;164894.81;;;4.37;100.00
45255;BME280;30989;52.078;21.014;2023-04-08T00:43:37;164878.78;;;4.31;100.00
45255;BME280;30989;52.078;21.014;2023-04-08T00:46:02;164888.13;;;4.34;100.00
45255;BME280;30989;52.078;21.014;2023-04-08T00:48:29;164880.13;;;4.31;100.00
45255;BME280;30989;52.078;21.014;2023-04-08T00:50:56;164877.47;;;4.30;100.00
45255;BME280;30989;52.078;21.014;2023-04-08T00:53:21;164861.47;;;4.24;100.00
45255;BME280;30989;52.078;21.014;2023-04-08T00:55:47;164860.13;;;4.24;100.00
45255;BME280;30989;52.078;21.014;2023-04-08T00:58:13;164870.78;;;4.28;100.00
45255;BME280;30989;52.078;21.014;2023-04-08T01:00:42;164870.78;;;4.28;100.00
45255;BME280;30989;52.078;21.014;2023-04-08T01:08:24;164864.13;;;4.25;100.00
45255;BME280;30989;52.078;21.014;2023-04-08T01:10:53;164837.44;;;4.15;100.00
45255;BME280;30989;52.078;21.014;2023-04-08T01:13:22;164854.78;;;4.21;100.00
45255;BME280;30989;52.078;21.014;2023-04-08T01:15:49;164820.13;;;4.08;100.00
45255;BME280;30989;52.078;21.014;2023-04-08T01:18:15;164829.44;;;4.12;100.00
45255;BME280;30989;52.078;21.014;2023-04-08T01:20:42;164809.44;;;4.04;100.00
45255;BME280;30989;52.078;21.014;2023-04-08T01:23:12;164792.13;;;3.98;100.00
45255;BME280;30989;52.078;21.014;2023-04-08T01:25:48;164769.44;;;3.89;100.00
45255;BME280;30989;52.078;21.014;2023-04-08T01:28:15;164748.09;;;3.81;100.00
45255;BME280;30989;52.078;21.014;2023-04-08T01:30:43;164725.44;;;3.72;100.00
45255;BME280;30989;52.078;21.014;2023-04-08T01:33:11;164704.09;;;3.64;100.00
45255;BME280;30989;52.078;21.014;2023-04-08T01:35:37;164692.13;;;3.60;100.00
45255;BME280;30989;52.078;21.014;2023-04-08T01:38:06;164657.47;;;3.46;100.00
45255;BME280;30989;52.078;21.014;2023-04-08T01:40:34;164649.47;;;3.43;100.00
45255;BME280;30989;52.078;21.014;2023-04-08T01:43:03;164641.47;;;3.40;100.00
45255;BME280;30989;52.078;21.014;2023-04-08T01:45:29;164624.13;;;3.34;100.00
45255;BME280;30989;52.078;21.014;2023-04-08T01:47:56;164609.47;;;3.28;100.00
45255;BME280;30989;52.078;21.014;2023-04-08T01:50:23;164596.16;;;3.23;100.00
45255;BME280;30989;52.078;21.014;2023-04-08T01:52:50;164572.16;;;3.14;100.00
45255;BME280;30989;52.078;21.014;2023-04-08T01:55:18;164557.50;;;3.08;100.00
45255;BME280;30989;52.078;21.014;2023-04-08T01:57:48;164554.84;;;3.07;100.00
45255;BME280;30989;52.078;21.014;2023-04-08T02:00:16;164545.50;;;3.04;100.00
45255;BME280;30989;52.078;21.014;2023-04-08T02:02:46;164536.19;;;3.00;100.00
45255;BME280;30989;52.078;21.014;2023-04-08T02:05:12;164522.84;;;2.95;100.00
45255;BME280;30989;52.078;21.014;2023-04-08T02:07:38;164514.84;;;2.92;100.00
45255;BME280;30989;52.078;21.014;2023-04-08T02:10:04;164514.84;;;2.92;100.00
45255;BME280;30989;52.078;21.014;2023-04-08T02:12:30;164506.84;;;2.89;100.00
45255;BME280;30989;52.078;21.014;2023-04-08T02:14:57;164496.19;;;2.85;100.00
45255;BME280;30989;52.078;21.014;2023-04-08T02:17:31;164497.53;;;2.85;100.00
45255;BME280;30989;52.078;21.014;2023-04-08T02:20:09;164484.22;;;2.80;100.00
45255;BME280;30989;52.078;21.014;2023-04-08T02:22:54;164464.22;;;2.73;100.00
45255;BME280;30989;52.078;21.014;2023-04-08T02:25:23;164457.56;;;2.70;100.00
45255;BME280;30989;52.078;21.014;2023-04-08T02:27:51;164445.56;;;2.66;100.00
45255;BME280;30989;52.078;21.014;2023-04-08T02:30:17;164446.91;;;2.66;100.00
45255;BME280;30989;52.078;21.014;2023-04-08T02:32:44;164441.56;;;2.64;100.00
45255;BME280;30989;52.078;21.014;2023-04-08T02:35:11;164430.91;;;2.60;100.00
45255;BME280;30989;52.078;21.014;2023-04-08T02:37:37;164425.59;;;2.58;100.00
45255;BME280;30989;52.078;21.014;2023-04-08T02:40:04;164405.59;;;2.50;100.00
45255;BME280;30989;52.078;21.014;2023-04-08T02:42:46;164401.63;;;2.49;100.00
45255;BME280;30989;52.078;21.014;2023-04-08T02:45:11;164396.28;;;2.47;100.00
45255;BME280;30989;52.078;21.014;2023-04-08T02:47:37;164366.97;;;2.36;100.00
45255;BME280;30989;52.078;21.014;2023-04-08T02:50:02;164372.31;;;2.38;100.00
45255;BME280;30989;52.078;21.014;2023-04-08T02:52:28;164366.97;;;2.36;100.00
45255;BME280;30989;52.078;21.014;2023-04-08T02:54:53;164345.69;;;2.28;100.00
45255;BME280;30989;52.078;21.014;2023-04-08T02:57:18;164351.00;;;2.30;100.00
45255;BME280;30989;52.078;21.014;2023-04-08T02:59:44;164345.69;;;2.28;100.00
45255;BME280;30989;52.078;21.014;2023-04-08T03:02:10;164343.00;;;2.26;100.00
45255;BME280;30989;52.078;21.014;2023-04-08T03:04:35;164305.72;;;2.12;100.00
45255;BME280;30989;52.078;21.014;2023-04-08T03:07:01;164320.38;;;2.18;100.00
45255;BME280;30989;52.078;21.014;2023-04-08T03:09:26;164316.38;;;2.16;100.00
45255;BME280;30989;52.078;21.014;2023-04-08T03:11:51;164305.72;;;2.12;100.00
45255;BME280;30989;52.078;21.014;2023-04-08T03:14:19;164308.38;;;2.13;100.00
45255;BME280;30989;52.078;21.014;2023-04-08T03:16:45;164295.06;;;2.08;100.00
45255;BME280;30989;52.078;21.014;2023-04-08T03:19:10;164272.44;;;2.00;100.00
45255;BME280;30989;52.078;21.014;2023-04-08T03:21:36;164276.41;;;2.01;100.00
45255;BME280;30989;52.078;21.014;2023-04-08T03:24:01;164253.78;;;1.92;100.00
45255;BME280;30989;52.078;21.014;2023-04-08T03:26:27;164260.44;;;1.95;100.00
45255;BME280;30989;52.078;21.014;2023-04-08T03:28:53;164252.47;;;1.92;100.00
45255;BME280;30989;52.078;21.014;2023-04-08T03:31:18;164237.81;;;1.86;100.00
45255;BME280;30989;52.078;21.014;2023-04-08T03:33:45;164232.47;;;1.84;100.00
45255;BME280;30989;52.078;21.014;2023-04-08T03:36:11;164223.16;;;1.81;100.00
45255;BME280;30989;52.078;21.014;2023-04-08T03:38:36;164205.84;;;1.74;100.00
45255;BME280;30989;52.078;21.014;2023-04-08T03:41:02;164193.88;;;1.70;100.00
45255;BME280;30989;52.078;21.014;2023-04-08T03:43:27;164188.56;;;1.68;100.00
45255;BME280;30989;52.078;21.014;2023-04-08T03:45:54;164177.91;;;1.64;100.00
45255;BME280;30989;52.078;21.014;2023-04-08T03:48:19;164180.56;;;1.65;100.00
45255;BME280;30989;52.078;21.014;2023-04-08T03:50:45;164175.25;;;1.63;100.00
45255;BME280;30989;52.078;21.014;2023-04-08T03:53:10;164169.91;;;1.60;100.00
45255;BME280;30989;52.078;21.014;2023-04-08T03:55:37;164159.25;;;1.56;100.00
45255;BME280;30989;52.078;21.014;2023-04-08T03:58:03;164148.63;;;1.52;100.00
45255;BME280;30989;52.078;21.014;2023-04-08T04:00:28;164153.94;;;1.54;100.00
45255;BME280;30989;52.078;21.014;2023-04-08T04:02:54;164148.63;;;1.52;100.00
45255;BME280;30989;52.078;21.014;2023-04-08T04:05:20;164145.94;;;1.51;100.00
45255;BME280;30989;52.078;21.014;2023-04-08T04:07:46;164116.66;;;1.40;100.00
45255;BME280;30989;52.078;21.014;2023-04-08T04:10:11;164137.97;;;1.48;100.00
45255;BME280;30989;52.078;21.014;2023-04-08T04:12:37;164125.97;;;1.44;100.00
45255;BME280;30989;52.078;21.014;2023-04-08T04:15:03;164135.31;;;1.47;100.00
45255;BME280;30989;52.078;21.014;2023-04-08T04:17:29;164122.00;;;1.42;100.00
45255;BME280;30989;52.078;21.014;2023-04-08T04:19:54;164128.66;;;1.45;100.00
45255;BME280;30989;52.078;21.014;2023-04-08T04:22:20;164118.00;;;1.41;100.00
45255;BME280;30989;52.078;21.014;2023-04-08T04:24:47;164122.00;;;1.42;100.00
45255;BME280;30989;52.078;21.014;2023-04-08T04:27:12;164103.34;;;1.35;100.00
45255;BME280;30989;52.078;21.014;2023-04-08T04:29:38;164118.00;;;1.41;100.00
45255;BME280;30989;52.078;21.014;2023-04-08T04:32:03;164118.00;;;1.41;100.00
45255;BME280;30989;52.078;21.014;2023-04-08T04:34:29;164118.00;;;1.41;100.00
45255;BME280;30989;52.078;21.014;2023-04-08T04:36:54;164110.00;;;1.38;100.00
45255;BME280;30989;52.078;21.014;2023-04-08T04:39:20;164114.00;;;1.39;100.00
45255;BME280;30989;52.078;21.014;2023-04-08T04:41:46;164108.69;;;1.37;100.00
45255;BME280;30989;52.078;21.014;2023-04-08T04:44:13;164119.34;;;1.41;100.00
45255;BME280;30989;52.078;21.014;2023-04-08T04:46:39;164125.97;;;1.44;100.00
45255;BME280;30989;52.078;21.014;2023-04-08T04:49:04;164136.63;;;1.48;100.00
45255;BME280;30989;52.078;21.014;2023-04-08T04:51:31;164145.94;;;1.51;100.00
45255;BME280;30989;52.078;21.014;2023-04-08T04:53:57;164149.94;;;1.53;100.00
45255;BME280;30989;52.078;21.014;2023-04-08T04:56:23;164163.25;;;1.58;100.00
45255;BME280;30989;52.078;21.014;2023-04-08T04:58:49;164176.56;;;1.63;100.00
45255;BME280;30989;52.078;21.014;2023-04-08T05:01:15;164192.53;;;1.69;100.00
45255;BME280;30989;52.078;21.014;2023-04-08T05:03:40;164209.84;;;1.76;100.00
45255;BME280;30989;52.078;21.014;2023-04-08T05:06:05;164225.81;;;1.82;100.00
45255;BME280;30989;52.078;21.014;2023-04-08T05:08:31;164240.47;;;1.87;100.00
45255;BME280;30989;52.078;21.014;2023-04-08T05:10:56;164245.78;;;1.89;100.00
45255;BME280;30989;52.078;21.014;2023-04-08T05:13:23;164256.44;;;1.93;100.00
45255;BME280;30989;52.078;21.014;2023-04-08T05:15:49;164279.09;;;2.02;100.00
45255;BME280;30989;52.078;21.014;2023-04-08T05:18:14;164300.38;;;2.10;100.00
45255;BME280;30989;52.078;21.014;2023-04-08T05:20:40;164312.38;;;2.15;100.00
45255;BME280;30989;52.078;21.014;2023-04-08T05:23:05;164307.06;;;2.13;100.00
45255;BME280;30989;52.078;21.014;2023-04-08T05:25:32;164344.34;;;2.27;100.00
45255;BME280;30989;52.078;21.014;2023-04-08T05:27:57;164357.66;;;2.32;100.00
45255;BME280;30989;52.078;21.014;2023-04-08T05:30:22;164388.28;;;2.44;100.00
45255;BME280;30989;52.078;21.014;2023-04-08T05:32:48;164414.94;;;2.54;100.00
45255;BME280;30989;52.078;21.014;2023-04-08T05:35:13;164430.91;;;2.60;100.00
45255;BME280;30989;52.078;21.014;2023-04-08T05:37:39;164444.25;;;2.65;100.00
45255;BME280;30989;52.078;21.014;2023-04-08T05:40:05;164468.22;;;2.74;100.00
45255;BME280;30989;52.078;21.014;2023-04-08T05:42:30;164494.88;;;2.84;100.00
45255;BME280;30989;52.078;21.014;2023-04-08T05:44:57;164522.84;;;2.95;100.00
45255;BME280;30989;52.078;21.014;2023-04-08T05:47:22;164552.16;;;3.06;100.00
45255;BME280;30989;52.078;21.014;2023-04-08T05:49:47;164581.47;;;3.17;100.00
45255;BME280;30989;52.078;21.014;2023-04-08T05:52:13;164604.13;;;3.26;100.00
45255;BME280;30989;52.078;21.014;2023-04-08T05:54:41;164633.47;;;3.37;100.00
45255;BME280;30989;52.078;21.014;2023-04-08T05:57:07;164633.47;;;3.37;100.00
45255;BME280;30989;52.078;21.014;2023-04-08T05:59:33;164630.78;;;3.36;100.00
45255;BME280;30989;52.078;21.014;2023-04-08T06:01:58;164650.78;;;3.44;100.00
45255;BME280;30989;52.078;21.014;2023-04-08T06:04:24;164678.78;;;3.54;100.00
45255;BME280;30989;52.078;21.014;2023-04-08T06:06:49;164697.44;;;3.62;100.00
45255;BME280;30989;52.078;21.014;2023-04-08T06:09:15;164716.09;;;3.69;100.00
45255;BME280;30989;52.078;21.014;2023-04-08T06:11:40;164746.78;;;3.80;100.00
45255;BME280;30989;52.078;21.014;2023-04-08T06:14:06;164776.09;;;3.92;100.00
45255;BME280;30989;52.078;21.014;2023-04-08T06:16:31;164793.44;;;3.98;100.00
45255;BME280;30989;52.078;21.014;2023-04-08T06:18:56;164798.78;;;4.00;100.00
45255;BME280;30989;52.078;21.014;2023-04-08T06:21:22;164837.44;;;4.15;100.00
45255;BME280;30989;52.078;21.014;2023-04-08T06:23:47;164864.13;;;4.25;100.00
45255;BME280;30989;52.078;21.014;2023-04-08T06:26:13;164898.81;;;4.38;100.00
45255;BME280;30989;52.078;21.014;2023-04-08T06:28:38;164932.16;;;4.51;100.00
45255;BME280;30989;52.078;21.014;2023-04-08T06:31:04;164964.16;;;4.63;100.00
45255;BME280;30989;52.078;21.014;2023-04-08T06:33:30;164980.19;;;4.69;100.00
45255;BME280;30989;52.078;21.014;2023-04-08T06:36:05;165004.19;;;4.78;100.00
45255;BME280;30989;52.078;21.014;2023-04-08T06:38:31;165029.53;;;4.88;100.00
45255;BME280;30989;52.078;21.014;2023-04-08T06:41:03;165057.56;;;4.99;100.00
45255;BME280;30989;52.078;21.014;2023-04-08T06:43:29;165090.91;;;5.11;100.00
45255;BME280;30989;52.078;21.014;2023-04-08T06:45:55;165119.00;;;5.22;100.00
45255;BME280;30989;52.078;21.014;2023-04-08T06:48:21;165140.34;;;5.30;100.00
45255;BME280;30989;52.078;21.014;2023-04-08T06:50:48;165148.34;;;5.33;100.00
45255;BME280;30989;52.078;21.014;2023-04-08T06:53:13;165153.69;;;5.35;100.00
45255;BME280;30989;52.078;21.014;2023-04-08T06:55:38;165189.75;;;5.49;100.00
45255;BME280;30989;52.078;21.014;2023-04-08T06:58:04;165225.78;;;5.63;100.00
45255;BME280;30989;52.078;21.014;2023-04-08T07:00:29;165251.16;;;5.72;100.00
45255;BME280;30989;52.078;21.014;2023-04-08T07:02:55;165273.84;;;5.81;100.00
45255;BME280;30989;52.078;21.014;2023-04-08T07:05:21;165297.94;;;5.90;100.00
45255;BME280;30989;52.078;21.014;2023-04-08T07:07:46;165338.00;;;6.05;100.00
45255;BME280;30989;52.078;21.014;2023-04-08T07:10:12;165370.03;;;6.18;100.00
45255;BME280;30989;52.078;21.014;2023-04-08T07:12:37;165415.44;;;6.35;100.00
45255;BME280;30989;52.078;21.014;2023-04-08T07:15:03;165447.50;;;6.47;100.00
45255;BME280;30989;52.078;21.014;2023-04-08T07:17:28;165482.22;;;6.60;100.00
45255;BME280;30989;52.078;21.014;2023-04-08T07:19:54;165519.63;;;6.74;100.00
45255;BME280;30989;52.078;21.014;2023-04-08T07:22:21;165573.09;;;6.95;100.00
45255;BME280;30989;52.078;21.014;2023-04-08T07:24:46;165607.81;;;7.08;100.00
45255;BME280;30989;52.078;21.014;2023-04-08T07:27:15;165639.91;;;7.20;100.00
45255;BME280;30989;52.078;21.014;2023-04-08T07:29:40;165655.94;;;7.26;99.15
45255;BME280;30989;52.078;21.014;2023-04-08T07:32:06;165654.59;;;7.26;100.00
45255;BME280;30989;52.078;21.014;2023-04-08T07:34:36;165671.97;;;7.32;100.00
45255;BME280;30989;52.078;21.014;2023-04-08T07:37:02;165705.38;;;7.45;100.00
45255;BME280;30989;52.078;21.014;2023-04-08T07:39:27;165714.75;;;7.49;100.00
45255;BME280;30989;52.078;21.014;2023-04-08T07:41:53;165696.03;;;7.41;100.00
45255;BME280;30989;52.078;21.014;2023-04-08T07:44:18;165704.06;;;7.44;100.00
45255;BME280;30989;52.078;21.014;2023-04-08T07:46:44;165717.41;;;7.50;99.73
45255;BME280;30989;52.078;21.014;2023-04-08T07:49:10;165736.13;;;7.57;100.00
45255;BME280;30989;52.078;21.014;2023-04-08T07:51:36;165768.22;;;7.69;100.00
45255;BME280;30989;52.078;21.014;2023-04-08T07:54:02;165797.63;;;7.80;100.00
45255;BME280;30989;52.078;21.014;2023-04-08T07:56:28;165827.03;;;7.91;100.00
45255;BME280;30989;52.078;21.014;2023-04-08T07:58:53;165847.09;;;7.99;100.00
45255;BME280;30989;52.078;21.014;2023-04-08T08:01:20;165879.19;;;8.11;100.00
45255;BME280;30989;52.078;21.014;2023-04-08T08:03:47;165899.25;;;8.19;98.34
45255;BME280;30989;52.078;21.014;2023-04-08T08:06:13;165899.25;;;8.19;99.08
45255;BME280;30989;52.078;21.014;2023-04-08T08:08:39;165928.66;;;8.30;97.36
45255;BME280;30989;52.078;21.014;2023-04-08T08:11:05;165913.94;;;8.24;96.46
45255;BME280;30989;52.078;21.014;2023-04-08T08:13:30;165923.31;;;8.28;98.39
45255;BME280;30989;52.078;21.014;2023-04-08T08:15:56;165960.81;;;8.42;99.12
45255;BME280;30989;52.078;21.014;2023-04-08T08:18:21;165991.56;;;8.54;97.46
45255;BME280;30989;52.078;21.014;2023-04-08T08:20:47;166011.63;;;8.61;97.59
45255;BME280;30989;52.078;21.014;2023-04-08T08:23:12;166046.41;;;8.75;97.94
45255;BME280;30989;52.078;21.014;2023-04-08T08:25:37;166077.19;;;8.86;96.45
45255;BME280;30989;52.078;21.014;2023-04-08T08:28:03;166086.56;;;8.90;96.46
45255;BME280;30989;52.078;21.014;2023-04-08T08:30:29;166116.00;;;9.01;96.34
45255;BME280;30989;52.078;21.014;2023-04-08T08:32:54;166150.78;;;9.14;95.67
45255;BME280;30989;52.078;21.014;2023-04-08T08:35:23;166182.88;;;9.26;95.63
45255;BME280;30989;52.078;21.014;2023-04-08T08:37:49;166217.69;;;9.40;95.31
45255;BME280;30989;52.078;21.014;2023-04-08T08:40:14;166257.84;;;9.55;94.72
45255;BME280;30989;52.078;21.014;2023-04-08T08:42:42;166281.94;;;9.64;93.91
45255;BME280;30989;52.078;21.014;2023-04-08T08:45:14;166318.06;;;9.78;94.14
45255;BME280;30989;52.078;21.014;2023-04-08T08:47:40;166346.19;;;9.88;92.44
45255;BME280;30989;52.078;21.014;2023-04-08T08:50:05;166354.22;;;9.91;92.77
45255;BME280;30989;52.078;21.014;2023-04-08T08:52:31;166391.72;;;10.06;91.83
45255;BME280;30989;52.078;21.014;2023-04-08T08:54:58;166401.06;;;10.09;91.91
45255;BME280;30989;52.078;21.014;2023-04-08T08:57:23;166435.94;;;10.22;92.10
45255;BME280;30989;52.078;21.014;2023-04-08T08:59:49;166450.69;;;10.28;88.98
45255;BME280;30989;52.078;21.014;2023-04-08T09:02:28;166453.34;;;10.29;90.72
45255;BME280;30989;52.078;21.014;2023-04-08T09:04:59;166453.34;;;10.29;90.26
45255;BME280;30989;52.078;21.014;2023-04-08T09:07:26;166439.97;;;10.24;88.38
45255;BME280;30989;52.078;21.014;2023-04-08T09:09:53;166464.06;;;10.33;88.04
45255;BME280;30989;52.078;21.014;2023-04-08T09:12:19;166445.31;;;10.26;84.57
45255;BME280;30989;52.078;21.014;2023-04-08T09:14:45;166439.97;;;10.24;87.69
45255;BME280;30989;52.078;21.014;2023-04-08T09:17:11;166449.34;;;10.27;87.76
45255;BME280;30989;52.078;21.014;2023-04-08T09:19:36;166488.22;;;10.42;89.84
45255;BME280;30989;52.078;21.014;2023-04-08T09:22:10;166533.75;;;10.59;85.26
45255;BME280;30989;52.078;21.014;2023-04-08T09:24:36;166544.47;;;10.63;86.58
45255;BME280;30989;52.078;21.014;2023-04-08T09:27:03;166563.22;;;10.71;87.80
45255;BME280;30989;52.078;21.014;2023-04-08T09:29:28;166572.59;;;10.74;85.25
45255;BME280;30989;52.078;21.014;2023-04-08T09:31:58;166600.72;;;10.85;87.45
45255;BME280;30989;52.078;21.014;2023-04-08T09:34:25;166644.94;;;11.02;87.97
45255;BME280;30989;52.078;21.014;2023-04-08T09:36:52;166630.19;;;10.96;82.30
45255;BME280;30989;52.078;21.014;2023-04-08T09:39:18;166644.94;;;11.02;84.82
45255;BME280;30989;52.078;21.014;2023-04-08T09:41:48;166665.03;;;11.09;81.66
45255;BME280;30989;52.078;21.014;2023-04-08T09:44:15;166667.72;;;11.10;83.68
45255;BME280;30989;52.078;21.014;2023-04-08T09:54:31;166721.31;;;11.30;82.42
45255;BME280;30989;52.078;21.014;2023-04-08T09:57:09;166750.78;;;11.42;82.88
45255;BME280;30989;52.078;21.014;2023-04-08T09:59:59;166796.34;;;11.59;81.92
45255;BME280;30989;52.078;21.014;2023-04-08T10:02:54;166841.91;;;11.76;79.20
45255;BME280;30989;52.078;21.014;2023-04-08T10:05:21;166848.69;;;11.79;80.40
45255;BME280;30989;52.078;21.014;2023-04-08T10:07:49;166884.88;;;11.92;81.56
45255;BME280;30989;52.078;21.014;2023-04-08T10:10:15;166938.50;;;12.13;81.76
45255;BME280;30989;52.078;21.014;2023-04-08T10:12:41;167002.84;;;12.37;81.57
45255;BME280;30989;52.078;21.014;2023-04-08T10:15:27;167064.53;;;12.61;79.75
45255;BME280;30989;52.078;21.014;2023-04-08T10:18:39;167092.69;;;12.71;72.38
45255;BME280;30989;52.078;21.014;2023-04-08T10:20:44;167049.78;;;12.55;76.58
45255;BME280;30989;52.078;21.014;2023-04-08T10:23:12;167103.41;;;12.75;76.26
45255;BME280;30989;52.078;21.014;2023-04-08T10:25:47;167167.78;;;13.00;74.23
45255;BME280;30989;52.078;21.014;2023-04-08T10:33:12;167252.34;;;13.32;69.68
45255;BME280;30989;52.078;21.014;2023-04-08T10:35:44;167234.91;;;13.25;70.09
45255;BME280;30989;52.078;21.014;2023-04-08T10:38:12;167273.81;;;13.40;71.06
45255;BME280;30989;52.078;21.014;2023-04-08T10:40:39;167338.22;;;13.64;72.77
45255;BME280;30989;52.078;21.014;2023-04-08T10:43:09;167422.78;;;13.96;72.49
45255;BME280;30989;52.078;21.014;2023-04-08T10:45:35;167501.97;;;14.26;68.09
45255;BME280;30989;52.078;21.014;2023-04-08T10:48:22;167515.41;;;14.31;65.89
45255;BME280;30989;52.078;21.014;2023-04-08T10:50:56;167514.03;;;14.31;66.75
45255;BME280;30989;52.078;21.014;2023-04-08T10:53:33;167596.00;;;14.62;66.64
45255;BME280;30989;52.078;21.014;2023-04-08T10:56:13;167664.47;;;14.88;67.32
45255;BME280;30989;52.078;21.014;2023-04-08T10:58:51;167774.59;;;15.29;69.26
45255;BME280;30989;52.078;21.014;2023-04-08T11:01:18;167867.41;;;15.64;67.43
45255;BME280;30989;52.078;21.014;2023-04-08T11:03:43;167907.69;;;15.79;61.79
45255;BME280;30989;52.078;21.014;2023-04-08T11:06:10;167943.97;;;15.93;66.98
45255;BME280;30989;52.078;21.014;2023-04-08T11:08:36;168042.06;;;16.30;60.03
45255;BME280;30989;52.078;21.014;2023-04-08T11:11:03;168060.88;;;16.37;59.15
45255;BME280;30989;52.078;21.014;2023-04-08T11:13:30;168111.97;;;16.57;55.01
45255;BME280;30989;52.078;21.014;2023-04-08T11:15:57;168167.13;;;16.78;60.46
45255;BME280;30989;52.078;21.014;2023-04-08T11:18:24;168306.97;;;17.30;57.20
45255;BME280;30989;52.078;21.014;2023-04-08T11:20:51;168359.41;;;17.50;56.10
45255;BME280;30989;52.078;21.014;2023-04-08T11:23:17;168351.34;;;17.47;55.84
45255;BME280;30989;52.078;21.014;2023-04-08T11:25:43;168432.09;;;17.78;60.37
45255;BME280;30989;52.078;21.014;2023-04-08T11:28:10;168685.09;;;18.73;59.23
45255;BME280;30989;52.078;21.014;2023-04-08T11:30:38;168924.75;;;19.63;58.23
45255;BME280;30989;52.078;21.014;2023-04-08T11:33:04;169079.63;;;20.22;56.74
45255;BME280;30989;52.078;21.014;2023-04-08T11:35:30;169275.03;;;20.96;53.58
45255;BME280;30989;52.078;21.014;2023-04-08T11:37:56;169416.59;;;21.49;53.20
45255;BME280;30989;52.078;21.014;2023-04-08T11:40:22;169372.13;;;21.32;49.70
45255;BME280;30989;52.078;21.014;2023-04-08T11:42:49;169188.78;;;20.63;47.57
45255;BME280;30989;52.078;21.014;2023-04-08T11:45:16;169165.88;;;20.54;50.07
45255;BME280;30989;52.078;21.014;2023-04-08T11:47:43;169199.53;;;20.67;50.32
45255;BME280;30989;52.078;21.014;2023-04-08T11:50:09;169085.00;;;20.24;50.13
45255;BME280;30989;52.078;21.014;2023-04-08T11:52:44;168884.31;;;19.48;50.38
45255;BME280;30989;52.078;21.014;2023-04-08T11:55:26;168631.19;;;18.53;50.51
45255;BME280;30989;52.078;21.014;2023-04-08T11:57:52;168472.44;;;17.93;50.52
45255;BME280;30989;52.078;21.014;2023-04-08T12:00:19;168339.22;;;17.43;52.83
45255;BME280;30989;52.078;21.014;2023-04-08T12:02:45;168187.28;;;16.85;53.05
45255;BME280;30989;52.078;21.014;2023-04-08T12:05:12;168181.91;;;16.83;52.55
45255;BME280;30989;52.078;21.014;2023-04-08T12:07:38;168235.69;;;17.03;53.57
45255;BME280;30989;52.078;21.014;2023-04-08T12:10:04;168181.91;;;16.83;53.23
45255;BME280;30989;52.078;21.014;2023-04-08T12:12:30;168036.69;;;16.28;52.24
45255;BME280;30989;52.078;21.014;2023-04-08T12:14:56;167883.50;;;15.70;52.21
45255;BME280;30989;52.078;21.014;2023-04-08T12:17:21;167797.44;;;15.38;53.98
45255;BME280;30989;52.078;21.014;2023-04-08T12:19:47;167926.50;;;15.87;55.30
45255;BME280;30989;52.078;21.014;2023-04-08T12:22:12;168198.06;;;16.89;54.03
45255;BME280;30989;52.078;21.014;2023-04-08T12:24:38;168452.28;;;17.85;53.53
45255;BME280;30989;52.078;21.014;2023-04-08T12:27:03;168712.00;;;18.83;52.12
45255;BME280;30989;52.078;21.014;2023-04-08T12:29:29;168924.75;;;19.63;49.49
45255;BME280;30989;52.078;21.014;2023-04-08T12:31:55;169095.78;;;20.28;43.78
45255;BME280;30989;52.078;21.014;2023-04-08T12:34:21;169171.25;;;20.56;45.72
45255;BME280;30989;52.078;21.014;2023-04-08T12:36:46;169257.53;;;20.89;46.50
45255;BME280;30989;52.078;21.014;2023-04-08T12:39:13;169473.19;;;21.70;47.05
45255;BME280;30989;52.078;21.014;2023-04-08T12:41:38;169686.28;;;22.50;47.11
45255;BME280;30989;52.078;21.014;2023-04-08T12:44:04;169818.50;;;23.00;41.23
45255;BME280;30989;52.078;21.014;2023-04-08T12:46:29;169787.47;;;22.89;42.70
45255;BME280;30989;52.078;21.014;2023-04-08T12:48:55;169841.41;;;23.09;40.77
45255;BME280;30989;52.078;21.014;2023-04-08T12:51:20;169725.38;;;22.65;38.23
45255;BME280;30989;52.078;21.014;2023-04-08T12:53:46;169496.13;;;21.79;38.47
45255;BME280;30989;52.078;21.014;2023-04-08T12:56:11;169252.16;;;20.87;40.07
45255;BME280;30989;52.078;21.014;2023-04-08T12:58:37;169153.75;;;20.50;41.50